createdAt,value
2018-08-16T11:21:43.893Z,10.20
2018-08-16T11:22:43.869Z,13.20
2018-08-16T11:23:43.866Z,9.90
2018-08-16T11:24:43.845Z,11.60
2018-08-16T11:25:43.830Z,12.30
2018-08-16T11:26:43.822Z,9.90
2018-08-16T11:27:43.828Z,10.10
2018-08-16T11:28:43.796Z,8.80
2018-08-16T11:29:43.786Z,9.80
2018-08-16T11:30:43.775Z,9.70
2018-08-16T11:31:43.764Z,10.90
2018-08-16T11:32:43.758Z,9.40
2018-08-16T11:33:43.753Z,10.30
2018-08-16T11:34:43.732Z,10.10
2018-08-16T11:35:43.724Z,10.50
2018-08-16T11:36:43.712Z,10.70
2018-08-16T11:37:43.720Z,9.00
2018-08-16T11:38:43.703Z,11.50
2018-08-16T11:39:43.685Z,9.20
2018-08-16T11:40:43.724Z,10.00
2018-08-16T11:41:43.665Z,9.70
2018-08-16T11:42:43.658Z,9.90
2018-08-16T11:43:43.668Z,9.30
2018-08-16T11:44:43.641Z,9.20
2018-08-16T11:45:43.627Z,9.20
2018-08-16T11:46:43.649Z,8.90
2018-08-16T11:47:43.609Z,10.10
2018-08-16T11:48:43.602Z,9.70
2018-08-16T11:49:43.603Z,11.20
2018-08-16T11:50:43.584Z,10.20
2018-08-16T11:51:43.571Z,10.40
2018-08-16T11:52:43.569Z,8.80
2018-08-16T11:53:43.554Z,10.70
2018-08-16T11:54:43.561Z,8.60
2018-08-16T11:55:43.537Z,9.50
2018-08-16T11:56:43.530Z,8.20
2018-08-16T11:57:43.522Z,9.30
2018-08-16T11:58:43.540Z,9.50
2018-08-16T11:59:43.522Z,8.40
2018-08-16T12:00:43.494Z,8.50
2018-08-16T12:01:43.485Z,9.50
2018-08-16T12:02:43.480Z,10.50
2018-08-16T12:03:43.467Z,8.80
2018-08-16T12:04:43.462Z,10.00
2018-08-16T12:05:43.459Z,9.40
2018-08-16T12:06:43.442Z,9.00
2018-08-16T12:07:43.434Z,8.10
2018-08-16T12:08:43.428Z,10.20
2018-08-16T12:09:43.416Z,8.00
2018-08-16T12:10:43.419Z,7.80
2018-08-16T12:11:43.401Z,7.20
2018-08-16T12:12:43.392Z,8.10
2018-08-16T12:13:43.384Z,9.00
2018-08-16T12:14:43.402Z,7.50
2018-08-16T12:15:43.389Z,8.90
2018-08-16T12:16:43.361Z,12.30
2018-08-16T12:17:43.352Z,7.00
2018-08-16T12:18:43.342Z,7.00
2018-08-16T12:19:43.332Z,8.40
2018-08-16T12:20:43.329Z,10.40
2018-08-16T12:21:43.329Z,7.30
2018-08-16T12:22:43.311Z,8.30
2018-08-16T12:23:43.299Z,8.40
2018-08-16T12:24:43.293Z,7.70
2018-08-16T12:25:43.282Z,10.80
2018-08-16T12:26:43.296Z,8.20
2018-08-16T12:27:43.265Z,8.10
2018-08-16T12:28:43.258Z,9.00
2018-08-16T12:29:43.250Z,8.70
2018-08-16T12:30:43.241Z,8.50
2018-08-16T12:31:43.233Z,8.50
2018-08-16T12:32:43.237Z,6.30
2018-08-16T12:33:43.221Z,7.60
2018-08-16T12:34:43.213Z,7.80
2018-08-16T12:35:43.202Z,10.20
2018-08-16T12:36:43.195Z,7.70
2018-08-16T12:37:43.236Z,7.50
2018-08-16T12:38:43.179Z,7.10
2018-08-16T12:39:43.169Z,8.50
2018-08-16T12:40:43.253Z,10.00
2018-08-16T12:41:43.154Z,8.70
2018-08-16T12:42:43.168Z,9.30
2018-08-16T12:43:43.143Z,8.30
2018-08-16T12:44:43.133Z,10.00
2018-08-16T12:45:43.124Z,8.40
2018-08-16T12:46:43.116Z,7.90
2018-08-16T12:47:43.173Z,8.30
2018-08-16T12:48:43.112Z,7.30
2018-08-16T12:49:43.094Z,7.10
2018-08-16T12:50:43.085Z,10.00
2018-08-16T12:51:43.079Z,9.10
2018-08-16T12:52:43.071Z,7.60
2018-08-16T12:53:43.159Z,7.20
2018-08-16T12:54:43.055Z,10.50
2018-08-16T12:55:43.051Z,10.70
2018-08-16T12:56:43.049Z,6.80
2018-08-16T12:57:43.032Z,7.40
2018-08-16T12:58:43.026Z,7.30
2018-08-16T12:59:43.027Z,6.20
2018-08-16T13:00:43.012Z,7.40
2018-08-16T13:01:43.032Z,6.90
2018-08-16T13:02:42.997Z,6.80
2018-08-16T13:03:42.990Z,7.20
2018-08-16T13:04:42.992Z,7.90
2018-08-16T13:05:42.973Z,7.20
2018-08-16T13:06:42.967Z,6.20
2018-08-16T13:07:42.961Z,8.70
2018-08-16T13:08:42.958Z,6.40
2018-08-16T13:09:42.954Z,7.20
2018-08-16T13:10:42.939Z,7.80
2018-08-16T13:11:42.932Z,8.40
2018-08-16T13:12:42.926Z,6.90
2018-08-16T13:13:42.917Z,8.60
2018-08-16T13:14:42.922Z,5.50
2018-08-16T13:15:42.903Z,6.60
2018-08-16T13:16:42.897Z,6.10
2018-08-16T13:17:42.889Z,7.00
2018-08-16T13:18:42.883Z,7.00
2018-08-16T13:19:42.896Z,7.50
2018-08-16T13:20:42.869Z,7.40
2018-08-16T13:21:42.862Z,6.30
2018-08-16T13:22:42.860Z,8.50
2018-08-16T13:23:42.915Z,6.70
2018-08-16T13:24:42.844Z,6.60
2018-08-16T13:25:42.846Z,8.00
2018-08-16T13:26:42.832Z,7.60
2018-08-16T13:27:42.913Z,6.40
2018-08-16T13:28:42.818Z,7.30
2018-08-16T13:29:42.810Z,6.70
2018-08-16T13:30:42.815Z,5.50
2018-08-16T13:31:42.800Z,6.50
2018-08-16T13:32:42.792Z,6.50
2018-08-16T13:33:42.786Z,6.00
2018-08-16T13:34:42.782Z,7.00
2018-08-16T13:35:42.806Z,5.80
2018-08-16T13:36:42.771Z,6.90
2018-08-16T13:37:42.758Z,9.50
2018-08-16T13:38:42.756Z,8.90
2018-08-16T13:39:42.755Z,6.50
2018-08-16T13:40:42.746Z,6.10
2018-08-16T13:41:42.750Z,5.90
2018-08-16T13:42:42.730Z,7.20
2018-08-16T13:43:42.726Z,7.20
2018-08-16T13:44:42.722Z,6.80
2018-08-16T13:45:42.719Z,5.10
2018-08-16T13:46:42.722Z,7.30
2018-08-16T13:47:42.706Z,7.40
2018-08-16T13:48:42.766Z,5.30
2018-08-16T13:49:42.697Z,7.20
2018-08-16T13:50:42.689Z,4.70
2018-08-16T13:51:42.707Z,5.80
2018-08-16T13:52:42.680Z,6.30
2018-08-16T13:53:42.676Z,4.60
2018-08-16T13:54:42.671Z,4.20
2018-08-16T13:55:42.684Z,7.70
2018-08-16T13:56:42.664Z,6.00
2018-08-16T13:57:42.670Z,4.40
2018-08-16T13:58:42.656Z,5.20
2018-08-16T13:59:42.652Z,5.80
2018-08-16T14:00:42.649Z,7.70
2018-08-16T14:01:42.650Z,5.90
2018-08-16T14:02:42.649Z,7.50
2018-08-16T14:03:42.631Z,5.80
2018-08-16T14:04:42.630Z,6.50
2018-08-16T14:05:42.625Z,4.80
2018-08-16T14:06:42.619Z,6.50
2018-08-16T14:07:42.620Z,5.80
2018-08-16T14:08:42.628Z,7.40
2018-08-16T14:09:42.610Z,4.50
2018-08-16T14:10:42.604Z,5.70
2018-08-16T14:11:42.602Z,4.40
2018-08-16T14:12:42.665Z,4.80
2018-08-16T14:13:42.608Z,7.90
2018-08-16T14:14:42.590Z,7.30
2018-08-16T14:15:42.587Z,6.10
2018-08-16T14:16:42.591Z,7.00
2018-08-16T14:17:42.581Z,6.30
2018-08-16T14:18:42.587Z,7.40
2018-08-16T14:19:42.575Z,12.70
2018-08-16T14:20:42.575Z,5.50
2018-08-16T14:21:42.568Z,6.10
2018-08-16T14:22:42.567Z,6.70
2018-08-16T14:23:42.561Z,4.80
2018-08-16T14:24:42.567Z,6.00
2018-08-16T14:25:42.560Z,8.20
2018-08-16T14:26:42.551Z,6.00
2018-08-16T14:27:42.551Z,6.90
2018-08-16T14:28:42.545Z,5.20
2018-08-16T14:29:42.540Z,7.10
2018-08-16T14:30:42.547Z,6.40
2018-08-16T14:31:42.534Z,7.10
2018-08-16T14:32:42.534Z,6.40
2018-08-16T14:33:42.528Z,5.90
2018-08-16T14:34:42.522Z,6.50
2018-08-16T14:35:42.529Z,5.90
2018-08-16T14:36:42.516Z,9.00
2018-08-16T14:37:42.513Z,7.00
2018-08-16T14:38:42.549Z,5.50
2018-08-16T14:39:42.512Z,5.90
2018-08-16T14:40:42.516Z,5.30
2018-08-16T14:41:42.501Z,7.40
2018-08-16T14:42:42.499Z,6.20
2018-08-16T14:43:42.497Z,8.50
2018-08-16T14:44:42.496Z,6.80
2018-08-16T14:45:42.496Z,4.50
2018-08-16T14:46:42.500Z,5.80
2018-08-16T14:47:42.488Z,6.70
2018-08-16T14:48:42.488Z,7.60
2018-08-16T14:49:42.483Z,6.80
2018-08-16T14:50:42.484Z,7.20
2018-08-16T14:51:42.484Z,10.60
2018-08-16T14:52:42.492Z,7.10
2018-08-16T14:53:42.478Z,6.20
2018-08-16T14:54:42.475Z,7.10
2018-08-16T14:55:42.473Z,6.00
2018-08-16T14:56:42.473Z,7.10
2018-08-16T14:57:42.482Z,6.50
2018-08-16T14:58:42.470Z,7.40
2018-08-16T14:59:42.469Z,5.90
2018-08-16T15:00:42.481Z,6.80
2018-08-16T15:01:42.466Z,5.90
2018-08-16T15:02:42.476Z,5.90
2018-08-16T15:03:42.468Z,7.00
2018-08-16T15:04:42.462Z,5.90
2018-08-16T15:05:42.462Z,7.10
2018-08-16T15:06:42.462Z,6.90
2018-08-16T15:07:42.495Z,5.70
2018-08-16T15:08:42.461Z,8.00
2018-08-16T15:09:42.456Z,6.00
2018-08-16T15:10:42.492Z,7.50
2018-08-16T15:11:42.459Z,6.20
2018-08-16T15:12:42.461Z,6.90
2018-08-16T15:13:42.468Z,6.70
2018-08-16T15:14:42.461Z,6.70
2018-08-16T15:15:42.459Z,7.10
2018-08-16T15:16:42.458Z,7.40
2018-08-16T15:17:42.459Z,8.50
2018-08-16T15:18:42.471Z,6.40
2018-08-16T15:19:42.459Z,7.30
2018-08-16T15:20:42.460Z,4.80
2018-08-16T15:21:42.461Z,4.70
2018-08-16T15:22:42.471Z,7.70
2018-08-16T15:23:42.471Z,6.30
2018-08-16T15:24:42.459Z,6.50
2018-08-16T15:25:42.461Z,7.00
2018-08-16T15:26:42.461Z,8.50
2018-08-16T15:27:42.470Z,6.30
2018-08-16T15:28:42.501Z,5.70
2018-08-16T15:29:42.467Z,5.00
2018-08-16T15:30:42.466Z,5.60
2018-08-16T15:31:42.463Z,5.70
2018-08-16T15:32:42.465Z,6.10
2018-08-16T15:33:42.463Z,5.40
2018-08-16T15:34:42.474Z,5.40
2018-08-16T15:35:42.468Z,6.70
2018-08-16T15:36:42.468Z,5.10
2018-08-16T15:37:42.468Z,7.30
2018-08-16T15:38:42.470Z,5.50
2018-08-16T15:39:42.481Z,6.20
2018-08-16T15:40:42.488Z,4.50
2018-08-16T15:41:42.474Z,5.30
2018-08-16T15:42:42.474Z,7.80
2018-08-16T15:43:42.476Z,7.60
2018-08-16T15:44:42.486Z,4.90
2018-08-16T15:45:42.476Z,4.90
2018-08-16T15:46:42.479Z,5.00
2018-08-16T15:47:42.479Z,4.90
2018-08-16T15:48:42.483Z,7.50
2018-08-16T15:49:42.494Z,6.50
2018-08-16T15:50:42.482Z,7.50
2018-08-16T15:51:42.484Z,6.30
2018-08-16T15:52:42.485Z,7.00
2018-08-16T15:53:42.486Z,6.00
2018-08-16T15:54:42.486Z,5.70
2018-08-16T15:55:42.501Z,5.70
2018-08-16T15:56:42.489Z,5.30
2018-08-16T15:57:42.490Z,4.90
2018-08-16T15:58:42.492Z,6.00
2018-08-16T15:59:42.493Z,6.50
2018-08-16T16:00:42.504Z,4.80
2018-08-16T16:01:42.497Z,4.90
2018-08-16T16:02:42.499Z,5.80
2018-08-16T16:03:42.500Z,5.50
2018-08-16T16:04:42.499Z,5.70
2018-08-16T16:05:42.714Z,4.90
2018-08-16T16:06:42.504Z,4.80
2018-08-16T16:07:42.507Z,5.70
2018-08-16T16:08:42.509Z,5.60
2018-08-16T16:09:42.509Z,7.30
2018-08-16T16:10:42.511Z,6.10
2018-08-16T16:11:42.523Z,7.90
2018-08-16T16:12:42.514Z,5.90
2018-08-16T16:13:42.522Z,5.70
2018-08-16T16:14:42.519Z,4.90
2018-08-16T16:15:42.525Z,6.40
2018-08-16T16:16:42.534Z,6.40
2018-08-16T16:17:42.523Z,5.40
2018-08-16T16:18:42.528Z,6.10
2018-08-16T16:19:42.527Z,5.60
2018-08-16T16:20:42.530Z,5.50
2018-08-16T16:21:42.541Z,5.90
2018-08-16T16:22:42.533Z,4.70
2018-08-16T16:23:42.534Z,6.60
2018-08-16T16:24:42.549Z,5.10
2018-08-16T16:25:42.536Z,7.20
2018-08-16T16:26:42.557Z,5.60
2018-08-16T16:27:42.542Z,6.90
2018-08-16T16:28:42.543Z,5.40
2018-08-16T16:29:42.544Z,4.70
2018-08-16T16:30:42.558Z,6.20
2018-08-16T16:31:42.550Z,5.50
2018-08-16T16:32:42.560Z,6.10
2018-08-16T16:33:42.552Z,6.00
2018-08-16T16:34:42.555Z,4.70
2018-08-16T16:35:42.556Z,6.80
2018-08-16T16:36:42.559Z,5.40
2018-08-16T16:37:42.571Z,5.10
2018-08-16T16:38:42.563Z,5.60
2018-08-16T16:39:42.564Z,4.60
2018-08-16T16:40:42.567Z,5.40
2018-08-16T16:41:42.567Z,5.50
2018-08-16T16:42:42.583Z,7.20
2018-08-16T16:43:42.576Z,6.10
2018-08-16T16:44:42.572Z,6.10
2018-08-16T16:45:42.576Z,4.90
2018-08-16T16:46:42.576Z,5.10
2018-08-16T16:47:42.578Z,6.50
2018-08-16T16:48:42.592Z,6.60
2018-08-16T16:49:42.635Z,6.20
2018-08-16T16:50:42.582Z,6.10
2018-08-16T16:51:52.676Z,5.70
2018-08-16T16:52:42.585Z,5.00
2018-08-16T16:53:42.597Z,4.90
2018-08-16T16:54:42.591Z,5.40
2018-08-16T16:55:42.592Z,4.90
2018-08-16T16:56:42.594Z,7.30
2018-08-16T16:57:42.593Z,5.20
2018-08-16T16:58:42.610Z,5.10
2018-08-16T16:59:42.595Z,5.30
2018-08-16T17:00:42.597Z,4.80
2018-08-16T17:01:42.596Z,4.30
2018-08-16T17:02:42.597Z,8.00
2018-08-16T17:03:42.619Z,4.80
2018-08-16T17:04:42.600Z,5.30
2018-08-16T17:05:42.600Z,5.10
2018-08-16T17:06:42.606Z,6.10
2018-08-16T17:07:42.601Z,5.50
2018-08-16T17:08:42.604Z,6.80
2018-08-16T17:09:42.616Z,4.90
2018-08-16T17:10:42.604Z,6.80
2018-08-16T17:11:42.605Z,6.30
2018-08-16T17:12:42.609Z,5.50
2018-08-16T17:13:42.607Z,5.10
2018-08-16T17:14:42.618Z,5.30
2018-08-16T17:15:42.608Z,5.20
2018-08-16T17:16:42.608Z,7.40
2018-08-16T17:17:42.606Z,4.80
2018-08-16T17:18:42.609Z,8.20
2018-08-16T17:19:42.628Z,6.50
2018-08-16T17:20:42.609Z,6.20
2018-08-16T17:21:42.607Z,6.00
2018-08-16T17:22:42.608Z,6.70
2018-08-16T17:23:42.607Z,5.60
2018-08-16T17:24:42.607Z,6.90
2018-08-16T17:25:42.617Z,6.20
2018-08-16T17:26:42.607Z,5.90
2018-08-16T17:27:42.606Z,5.10
2018-08-16T17:28:42.604Z,5.30
2018-08-16T17:29:42.604Z,5.60
2018-08-16T17:30:42.615Z,5.80
2018-08-16T17:31:42.601Z,5.10
2018-08-16T17:32:42.599Z,7.50
2018-08-16T17:33:42.598Z,5.90
2018-08-16T17:34:42.598Z,5.70
2018-08-16T17:35:42.626Z,4.90
2018-08-16T17:36:42.603Z,5.50
2018-08-16T17:37:42.589Z,5.80
2018-08-16T17:38:42.589Z,5.30
2018-08-16T17:39:42.590Z,7.00
2018-08-16T17:40:42.591Z,5.80
2018-08-16T17:41:42.591Z,6.40
2018-08-16T17:42:42.595Z,6.00
2018-08-16T17:43:42.602Z,4.70
2018-08-16T17:44:42.651Z,5.50
2018-08-16T17:45:42.749Z,5.10
2018-08-16T17:46:42.738Z,6.10
2018-08-16T17:47:43.291Z,5.60
2018-08-16T17:48:42.613Z,5.70
2018-08-16T17:49:42.566Z,5.20
2018-08-16T17:50:42.687Z,6.20
2018-08-16T17:51:43.153Z,6.90
2018-08-16T17:52:43.186Z,7.10
2018-08-16T17:53:43.219Z,5.20
2018-08-16T17:54:43.156Z,5.30
2018-08-16T17:55:43.315Z,5.30
2018-08-16T17:56:43.151Z,7.10
2018-08-16T17:57:42.717Z,6.20
2018-08-16T17:58:42.631Z,5.90
2018-08-16T17:59:42.716Z,7.10
2018-08-16T18:00:43.179Z,5.80
2018-08-16T18:01:42.527Z,6.30
2018-08-16T18:02:42.564Z,4.90
2018-08-16T18:03:42.571Z,7.40
2018-08-16T18:04:43.340Z,8.50
2018-08-16T18:05:43.245Z,5.30
2018-08-16T18:06:42.623Z,6.20
2018-08-16T18:07:42.561Z,7.80
2018-08-16T18:08:43.152Z,5.50
2018-08-16T18:09:42.561Z,7.80
2018-08-16T18:10:42.500Z,5.40
2018-08-16T18:11:42.508Z,6.30
2018-08-16T18:12:42.496Z,5.30
2018-08-16T18:13:42.585Z,6.20
2018-08-16T18:14:43.266Z,9.20
2018-08-16T18:15:42.429Z,5.80
2018-08-16T18:16:42.653Z,5.80
2018-08-16T18:17:42.548Z,5.70
2018-08-16T18:18:43.219Z,6.30
2018-08-16T18:19:42.465Z,6.60
2018-08-16T18:20:42.652Z,8.10
2018-08-16T18:21:42.539Z,6.10
2018-08-16T18:22:42.435Z,6.80
2018-08-16T18:23:42.396Z,6.60
2018-08-16T18:24:43.238Z,6.90
2018-08-16T18:25:42.477Z,8.70
2018-08-16T18:26:42.510Z,7.30
2018-08-16T18:27:42.364Z,7.40
2018-08-16T18:28:43.163Z,6.00
2018-08-16T18:29:44.172Z,6.10
2018-08-16T18:30:42.516Z,6.60
2018-08-16T18:31:42.429Z,6.40
2018-08-16T18:32:42.331Z,7.50
2018-08-16T18:33:42.263Z,6.80
2018-08-16T18:34:42.258Z,6.80
2018-08-16T18:35:42.281Z,8.90
2018-08-16T18:36:42.278Z,7.10
2018-08-16T18:37:42.249Z,6.80
2018-08-16T18:38:42.228Z,6.40
2018-08-16T18:39:42.238Z,7.90
2018-08-16T18:40:42.209Z,6.20
2018-08-16T18:41:42.318Z,6.20
2018-08-16T18:42:42.271Z,6.50
2018-08-16T18:43:42.305Z,8.90
2018-08-16T18:44:42.316Z,6.90
2018-08-16T18:45:43.687Z,8.00
2018-08-16T18:46:43.184Z,6.40
2018-08-16T18:47:44.673Z,8.00
2018-08-16T18:48:42.741Z,8.40
2018-08-16T18:49:42.122Z,6.70
2018-08-16T18:50:42.769Z,6.70
2018-08-16T18:51:42.147Z,7.80
2018-08-16T18:52:42.213Z,8.00
2018-08-16T18:53:42.712Z,6.60
2018-08-16T18:54:42.176Z,6.80
2018-08-16T18:55:42.075Z,7.50
2018-08-16T18:56:43.172Z,7.80
2018-08-16T18:57:42.072Z,6.80
2018-08-16T18:58:42.119Z,7.40
2018-08-16T18:59:42.253Z,6.80
2018-08-16T19:00:42.075Z,7.30
2018-08-16T19:01:42.045Z,7.90
2018-08-16T19:02:46.697Z,7.50
2018-08-16T19:03:41.998Z,7.60
2018-08-16T19:04:42.248Z,8.90
2018-08-16T19:05:42.193Z,10.20
2018-08-16T19:06:43.700Z,8.30
2018-08-16T19:07:42.080Z,12.00
2018-08-16T19:08:42.025Z,13.10
2018-08-16T19:09:41.938Z,11.10
2018-08-16T19:10:41.906Z,13.60
2018-08-16T19:11:41.898Z,17.40
2018-08-16T19:12:41.888Z,17.20
2018-08-16T19:13:41.877Z,14.10
2018-08-16T19:14:41.874Z,12.50
2018-08-16T19:15:41.866Z,12.70
2018-08-16T19:16:41.850Z,11.30
2018-08-16T19:17:41.832Z,10.90
2018-08-16T19:18:41.857Z,9.80
2018-08-16T19:19:41.813Z,10.40
2018-08-16T19:20:41.821Z,10.20
2018-08-16T19:21:41.789Z,8.70
2018-08-16T19:22:41.779Z,8.20
2018-08-16T19:23:41.773Z,8.60
2018-08-16T19:24:41.762Z,8.80
2018-08-16T19:25:41.758Z,8.30
2018-08-16T19:26:41.733Z,9.20
2018-08-16T19:27:41.725Z,8.40
2018-08-16T19:28:41.716Z,10.00
2018-08-16T19:29:41.787Z,8.40
2018-08-16T19:30:41.714Z,8.70
2018-08-16T19:31:41.680Z,8.70
2018-08-16T19:32:41.676Z,11.40
2018-08-16T19:33:41.660Z,10.20
2018-08-16T19:34:41.656Z,10.10
2018-08-16T19:35:41.711Z,9.30
2018-08-16T19:36:41.629Z,9.70
2018-08-16T19:37:41.615Z,10.70
2018-08-16T19:38:41.605Z,9.80
2018-08-16T19:39:41.594Z,9.40
2018-08-16T19:40:41.584Z,10.10
2018-08-16T19:41:41.582Z,11.30
2018-08-16T19:42:41.562Z,11.60
2018-08-16T19:43:41.549Z,9.30
2018-08-16T19:44:41.535Z,9.30
2018-08-16T19:45:41.526Z,10.10
2018-08-16T19:46:41.528Z,8.90
2018-08-16T19:47:41.504Z,9.40
2018-08-16T19:48:41.493Z,8.70
2018-08-16T19:49:41.481Z,9.70
2018-08-16T19:50:41.472Z,9.90
2018-08-16T19:51:41.480Z,8.20
2018-08-16T19:52:41.447Z,7.80
2018-08-16T19:53:41.436Z,8.80
2018-08-16T19:54:41.428Z,7.30
2018-08-16T19:55:41.415Z,7.90
2018-08-16T19:56:41.403Z,8.40
2018-08-16T19:57:41.402Z,8.30
2018-08-16T19:58:41.379Z,9.00
2018-08-16T19:59:41.368Z,10.80
2018-08-16T20:00:41.356Z,8.40
2018-08-16T20:01:41.382Z,8.30
2018-08-16T20:02:41.360Z,8.80
2018-08-16T20:03:41.367Z,10.70
2018-08-16T20:04:41.338Z,10.00
2018-08-16T20:05:41.335Z,8.90
2018-08-16T20:06:41.292Z,13.60
2018-08-16T20:07:41.305Z,9.90
2018-08-16T20:08:41.293Z,10.20
2018-08-16T20:09:41.258Z,8.40
2018-08-16T20:10:41.242Z,11.30
2018-08-16T20:11:41.232Z,9.60
2018-08-16T20:12:41.228Z,9.20
2018-08-16T20:13:41.214Z,8.90
2018-08-16T20:14:41.193Z,9.60
2018-08-16T20:15:41.182Z,10.40
2018-08-16T20:16:41.170Z,10.80
2018-08-16T20:17:41.169Z,12.00
2018-08-16T20:18:41.146Z,9.50
2018-08-16T20:19:41.157Z,10.30
2018-08-16T20:20:41.137Z,12.60
2018-08-16T20:21:41.113Z,11.50
2018-08-16T20:22:41.117Z,12.60
2018-08-16T20:23:50.294Z,12.60
2018-08-16T20:24:41.075Z,11.00
2018-08-16T20:25:41.061Z,10.10
2018-08-16T20:26:41.049Z,12.90
2018-08-16T20:27:41.035Z,11.10
2018-08-16T20:28:41.035Z,11.40
2018-08-16T20:29:41.011Z,10.10
2018-08-16T20:30:41.002Z,12.40
2018-08-16T20:31:40.988Z,10.60
2018-08-16T20:32:40.974Z,10.70
2018-08-16T20:33:40.974Z,12.60
2018-08-16T20:34:40.950Z,10.40
2018-08-16T20:35:40.943Z,11.00
2018-08-16T20:36:40.925Z,11.30
2018-08-16T20:37:40.912Z,10.80
2018-08-16T20:38:40.916Z,11.50
2018-08-16T20:39:40.889Z,10.10
2018-08-16T20:40:40.875Z,10.10
2018-08-16T20:41:40.866Z,8.80
2018-08-16T20:42:40.851Z,10.10
2018-08-16T20:43:40.838Z,12.80
2018-08-16T20:44:40.836Z,10.70
2018-08-16T20:45:40.815Z,9.80
2018-08-16T20:46:40.801Z,10.50
2018-08-16T20:47:40.791Z,9.10
2018-08-16T20:48:40.776Z,9.60
2018-08-16T20:49:40.772Z,10.80
2018-08-16T20:50:40.749Z,8.90
2018-08-16T20:51:40.739Z,9.70
2018-08-16T20:52:40.729Z,8.90
2018-08-16T20:53:40.715Z,9.00
2018-08-16T20:54:40.711Z,9.10
2018-08-16T20:55:40.689Z,9.90
2018-08-16T20:56:40.679Z,10.90
2018-08-16T20:57:40.663Z,10.00
2018-08-16T20:58:40.651Z,10.50
2018-08-16T20:59:40.660Z,10.00
2018-08-16T21:00:40.721Z,10.20
2018-08-16T21:01:40.613Z,9.90
2018-08-16T21:02:40.599Z,8.80
2018-08-16T21:03:40.588Z,11.40
2018-08-16T21:04:40.625Z,8.30
2018-08-16T21:05:40.572Z,9.30
2018-08-16T21:06:40.548Z,9.80
2018-08-16T21:07:40.535Z,8.70
2018-08-16T21:08:40.523Z,9.30
2018-08-16T21:09:40.526Z,10.00
2018-08-16T21:10:40.498Z,9.10
2018-08-16T21:11:40.484Z,9.50
2018-08-16T21:12:40.516Z,11.20
2018-08-16T21:13:40.458Z,9.80
2018-08-16T21:14:40.467Z,8.70
2018-08-16T21:15:40.434Z,8.70
2018-08-16T21:16:40.418Z,9.20
2018-08-16T21:17:40.407Z,9.20
2018-08-16T21:18:40.395Z,9.30
2018-08-16T21:19:40.381Z,9.10
2018-08-16T21:20:40.423Z,11.00
2018-08-16T21:21:40.385Z,10.20
2018-08-16T21:22:40.344Z,9.00
2018-08-16T21:23:40.330Z,10.70
2018-08-16T21:24:40.317Z,11.80
2018-08-16T21:25:40.313Z,9.30
2018-08-16T21:26:40.289Z,9.80
2018-08-16T21:27:40.335Z,9.80
2018-08-16T21:28:40.265Z,9.60
2018-08-16T21:29:40.258Z,8.90
2018-08-16T21:30:40.380Z,9.20
2018-08-16T21:31:40.225Z,9.30
2018-08-16T21:32:40.210Z,9.10
2018-08-16T21:33:40.198Z,9.10
2018-08-16T21:34:40.263Z,8.90
2018-08-16T21:35:40.184Z,8.60
2018-08-16T21:36:40.158Z,8.90
2018-08-16T21:37:40.149Z,11.80
2018-08-16T21:38:40.130Z,9.50
2018-08-16T21:39:40.119Z,10.30
2018-08-16T21:40:40.125Z,9.70
2018-08-16T21:41:40.092Z,10.70
2018-08-16T21:42:40.078Z,9.90
2018-08-16T21:43:40.068Z,9.50
2018-08-16T21:44:40.051Z,10.00
2018-08-16T21:45:40.039Z,9.80
2018-08-16T21:46:40.037Z,9.90
2018-08-16T21:47:40.012Z,9.70
2018-08-16T21:48:39.998Z,9.40
2018-08-16T21:49:39.982Z,9.50
2018-08-16T21:50:39.969Z,11.40
2018-08-16T21:51:39.967Z,9.20
2018-08-16T21:52:39.944Z,9.60
2018-08-16T21:53:39.928Z,9.30
2018-08-16T21:54:39.918Z,10.10
2018-08-16T21:55:39.905Z,9.40
2018-08-16T21:56:39.903Z,9.30
2018-08-16T21:57:39.877Z,10.70
2018-08-16T21:58:39.864Z,9.50
2018-08-16T21:59:39.849Z,9.70
2018-08-16T22:00:39.838Z,9.60
2018-08-16T22:01:39.819Z,10.10
2018-08-16T22:02:39.826Z,9.60
2018-08-16T22:03:39.796Z,9.20
2018-08-16T22:04:39.781Z,9.90
2018-08-16T22:05:39.795Z,9.50
2018-08-16T22:06:39.753Z,11.80
2018-08-16T22:07:39.753Z,9.90
2018-08-16T22:08:39.724Z,9.80
2018-08-16T22:09:39.710Z,10.20
2018-08-16T22:10:39.700Z,10.90
2018-08-16T22:11:39.684Z,9.90
2018-08-16T22:12:39.687Z,9.70
2018-08-16T22:13:39.659Z,10.00
2018-08-16T22:14:39.643Z,9.80
2018-08-16T22:15:39.630Z,11.80
2018-08-16T22:16:39.616Z,9.80
2018-08-16T22:17:39.620Z,10.40
2018-08-16T22:18:39.588Z,11.80
2018-08-16T22:19:39.573Z,10.60
2018-08-16T22:20:39.558Z,9.80
2018-08-16T22:21:39.549Z,10.30
2018-08-16T22:22:39.531Z,9.90
2018-08-16T22:23:39.529Z,10.60
2018-08-16T22:24:39.509Z,10.20
2018-08-16T22:25:39.491Z,10.90
2018-08-16T22:26:39.479Z,10.60
2018-08-16T22:27:39.463Z,11.60
2018-08-16T22:28:39.466Z,10.00
2018-08-16T22:29:39.435Z,10.30
2018-08-16T22:30:39.420Z,10.60
2018-08-16T22:31:39.406Z,10.20
2018-08-16T22:32:39.393Z,10.80
2018-08-16T22:33:39.382Z,10.50
2018-08-16T22:34:39.376Z,11.10
2018-08-16T22:35:39.353Z,11.00
2018-08-16T22:36:39.391Z,10.90
2018-08-16T22:37:39.323Z,10.30
2018-08-16T22:38:39.305Z,10.60
2018-08-16T22:39:39.306Z,12.90
2018-08-16T22:40:39.283Z,10.60
2018-08-16T22:41:39.269Z,10.70
2018-08-16T22:42:39.251Z,11.20
2018-08-16T22:43:39.239Z,11.80
2018-08-16T22:44:39.241Z,10.40
2018-08-16T22:45:39.209Z,10.60
2018-08-16T22:46:39.196Z,10.70
2018-08-16T22:47:39.182Z,10.80
2018-08-16T22:48:39.166Z,10.50
2018-08-16T22:49:39.180Z,12.20
2018-08-16T22:50:39.139Z,10.40
2018-08-16T22:51:39.182Z,11.10
2018-08-16T22:52:39.109Z,10.60
2018-08-16T22:53:39.095Z,10.50
2018-08-16T22:54:39.082Z,10.90
2018-08-16T22:55:39.077Z,13.40
2018-08-16T22:56:39.054Z,10.30
2018-08-16T22:57:39.036Z,10.60
2018-08-16T22:58:39.025Z,11.00
2018-08-16T22:59:39.014Z,11.20
2018-08-16T23:00:39.011Z,11.20
2018-08-16T23:01:38.984Z,11.60
2018-08-16T23:02:38.967Z,10.80
2018-08-16T23:03:38.953Z,10.80
2018-08-16T23:04:38.942Z,11.50
2018-08-16T23:05:38.919Z,12.10
2018-08-16T23:06:38.917Z,12.10
2018-08-16T23:07:38.898Z,12.30
2018-08-16T23:08:38.880Z,12.10
2018-08-16T23:09:38.868Z,11.80
2018-08-16T23:10:38.849Z,15.20
2018-08-16T23:11:38.846Z,12.00
2018-08-16T23:12:38.825Z,12.30
2018-08-16T23:13:38.810Z,12.30
2018-08-16T23:14:38.795Z,14.10
2018-08-16T23:15:38.780Z,12.60
2018-08-16T23:16:38.775Z,12.70
2018-08-16T23:17:38.755Z,12.80
2018-08-16T23:18:38.737Z,12.90
2018-08-16T23:19:38.723Z,14.00
2018-08-16T23:20:38.706Z,14.90
2018-08-16T23:21:38.703Z,12.40
2018-08-16T23:22:38.681Z,13.10
2018-08-16T23:23:38.665Z,13.40
2018-08-16T23:24:38.648Z,14.00
2018-08-16T23:25:38.634Z,11.50
2018-08-16T23:26:38.637Z,12.40
2018-08-16T23:27:38.606Z,12.40
2018-08-16T23:28:38.591Z,12.00
2018-08-16T23:29:38.577Z,12.00
2018-08-16T23:30:38.559Z,12.50
2018-08-16T23:31:38.548Z,12.50
2018-08-16T23:32:38.542Z,12.50
2018-08-16T23:33:38.516Z,12.30
2018-08-16T23:34:38.502Z,12.70
2018-08-16T23:35:38.487Z,14.20
2018-08-16T23:36:38.475Z,13.20
2018-08-16T23:37:38.477Z,13.00
2018-08-16T23:38:38.445Z,13.00
2018-08-16T23:39:38.428Z,14.20
2018-08-16T23:40:38.416Z,13.00
2018-08-16T23:41:38.401Z,13.10
2018-08-16T23:42:38.401Z,12.30
2018-08-16T23:43:38.370Z,12.30
2018-08-16T23:44:38.356Z,13.70
2018-08-16T23:45:38.339Z,19.20
2018-08-16T23:46:38.326Z,13.00
2018-08-16T23:47:38.323Z,15.30
2018-08-16T23:48:38.300Z,13.10
2018-08-16T23:49:38.282Z,14.20
2018-08-16T23:50:38.268Z,15.10
2018-08-16T23:51:38.253Z,13.60
2018-08-16T23:52:38.258Z,14.00
2018-08-16T23:53:38.225Z,14.70
2018-08-16T23:54:38.208Z,12.90
2018-08-16T23:55:38.190Z,15.80
2018-08-16T23:56:38.182Z,14.40
2018-08-16T23:57:38.163Z,13.60
2018-08-16T23:58:38.154Z,13.70
2018-08-16T23:59:38.134Z,12.70
